Portada
METAR-TAF:

METAR-TAF

Aeroports :

Gainesville, Florida, Estats Units d'Amèrica

latitud: 29-41-31N, longitud: 082-16-32W, altitud: 46 m

Observació

L'informe es va fer fa 1 hora i 4 minuts, a les 00:53 UTC
Vent 8 kt del Est
Temperatura 26°C
Humitat 65%
Pressió 1018 hPa
Visibilitat: 16.1 km
Cel clar

METAR: KGNV 180053Z 08008KT 10SM CLR 26/19 A3007 RMK AO2 SLP178 T02610194

Hora: 21:57 (01:57 UTC)

Pronòstic

L'informe es va fer fa 1 hora i 51 minuts, a les 00:06 UTC
Pronòstic vàlid del 18 a les 00 UTC al 18 a les 24 UTC
Vent 8 kt del Est
Visibilitat: 10 km
Núvols disperses a una alçada de 4000 ft
A partir de les 18 a les 1300 UTC
Vent 12 kt del Est amb ràfegues de 25 kt
Visibilitat: 10 km
Cel ennuvolat a una alçada de 3500 ft
xàfecs en les proximitats,

TAF: KGNV 180006Z 1800/1824 08008KT P6SM SCT040 FM181300 09012G25KT P6SM VCSH BKN035

Observacions i pronòstics meteorològics de més de 4000 aeroports (METAR i TAF).

Les estacions disponibles són els punts grocs i vermells al mapa.

Posi el ratolí al punt desitjat per veure el nom de l'estació.

Feu clic per veure les observacions i els pronòstics meteorològics.

Per canviar el mapa: feu clic els botons verds amb una creu de color negre per apropar; al botó verd amb un guió per allunyar la imatge; o en les fletxes verdes per a mapes adjacents.


METAR-TAF: